Time;durP1;ratioP1;P1;durP2;ratioP2;P2;SDS_P1;SDS_P2;PMS_P1;PMS_P2;Temp;Humidity;BMP_temperature;BMP_pressure;BME280_temperature;BME280_humidity;BME280_pressure;Samples;Min_cycle;Max_cycle;Signal;HPM_P1;HPM_P2
2021/01/04 00:00:11;;;;;;;;;;;;;;;-0.05;100.00;102328.22;1902649;75;20236;-37
2021/01/04 00:03:16;;;;;;;;;;;;;;;-0.06;100.00;102329.42;1902410;75;20129;-38
2021/01/04 00:06:10;;;;;;;;;;;;;;;-0.06;100.00;102334.18;1902284;75;20203;-38
2021/01/04 00:08:47;;;;;;;;;;;;;;;-0.06;100.00;102336.75;1902716;75;20148;-39
2021/01/04 00:11:47;;;;;;;;;;;;;;;-0.06;100.00;102336.75;1902593;75;20196;-38
2021/01/04 00:14:21;;;;;;;;;;;;;;;-0.07;100.00;102331.15;1880967;75;20260;-38
2021/01/04 00:17:16;;;;;;;;;;;;;;;-0.07;100.00;102331.15;1868850;75;20224;-38
2021/01/04 00:19:53;;;;;;;;;;;;;;;-0.07;100.00;102326.39;1867116;77;20137;-38
2021/01/04 00:22:40;;;;;;;;;;;;;;;-0.08;100.00;102331.95;1867182;77;20453;-38
2021/01/04 00:25:16;;;;;;;;;;;;;;;-0.07;100.00;102328.97;1867119;77;20145;-38
2021/01/04 00:27:48;;;;;;;;;;;;;;;-0.07;100.00;102324.70;1867174;77;20239;-39
2021/01/04 00:30:29;;;;;;;;;;;;;;;-0.05;100.00;102324.76;1867374;77;20171;-38
2021/01/04 00:32:59;;;;;;;;;;;;;;;-0.05;100.00;102324.76;1867292;76;20220;-37
2021/01/04 00:35:27;;;;;;;;;;;;;;;-0.07;100.00;102318.66;1867262;77;20132;-39
2021/01/04 00:38:04;;;;;;;;;;;;;;;-0.06;100.00;102326.45;1867352;76;20260;-39
2021/01/04 00:40:46;;;;;;;;;;;;;;;-0.07;100.00;102325.99;1867466;76;20470;-38
2021/01/04 00:43:18;;;;;;;;;;;;;;;-0.07;100.00;102322.13;1867631;76;20145;-38
2021/01/04 00:45:46;;;;;;;;;;;;;;;-0.07;100.00;102319.95;1866978;76;20192;-39
2021/01/04 00:48:18;;;;;;;;;;;;;;;-0.08;100.00;102320.34;1867362;76;20228;-38
2021/01/04 00:51:07;;;;;;;;;;;;;;;-0.07;100.00;102321.23;1867183;77;20203;-39
2021/01/04 00:53:38;;;;;;;;;;;;;;;-0.08;100.00;102324.21;1867318;77;20275;-41
2021/01/04 00:56:30;;;;;;;;;;;;;;;-0.07;100.00;102319.55;1867551;76;20255;-37
2021/01/04 00:59:11;;;;;;;;;;;;;;;-0.08;100.00;102307.86;1867322;77;20124;-37
2021/01/04 01:01:45;;;;;;;;;;;;;;;-0.08;100.00;102308.75;1867411;77;20200;-38
2021/01/04 01:04:33;;;;;;;;;;;;;;;-0.09;100.00;102308.66;1867414;77;20176;-39
2021/01/04 01:07:07;;;;;;;;;;;;;;;-0.09;100.00;102315.10;1868087;75;20186;-39
2021/01/04 01:09:36;;;;;;;;;;;;;;;-0.09;100.00;102303.11;1867484;77;20273;-39
2021/01/04 01:12:34;;;;;;;;;;;;;;;-0.09;100.00;102302.22;1867414;77;20404;-38
2021/01/04 01:15:21;;;;;;;;;;;;;;;-0.09;100.00;102299.23;1867302;77;20229;-38
2021/01/04 01:18:10;;;;;;;;;;;;;;;-0.08;100.00;102300.13;1849375;77;20150;-38
2021/01/04 01:20:40;;;;;;;;;;;;;;;-0.09;100.00;102299.23;1867166;77;20150;-38
2021/01/04 01:23:10;;;;;;;;;;;;;;;-0.09;100.00;102288.04;1867443;77;20122;-38
2021/01/04 01:25:44;;;;;;;;;;;;;;;-0.09;100.00;102285.46;1866489;77;20225;-38
2021/01/04 01:28:45;;;;;;;;;;;;;;;-0.10;100.00;102271.69;1834632;77;20165;-39
2021/01/04 01:31:34;;;;;;;;;;;;;;;-0.10;100.00;102270.39;1867419;77;20135;-39
2021/01/04 01:34:16;;;;;;;;;;;;;;;-0.10;100.00;102265.23;1867026;77;20143;-39
2021/01/04 01:37:03;;;;;;;;;;;;;;;-0.10;100.00;102265.64;1867155;77;20130;-38
2021/01/04 01:39:55;;;;;;;;;;;;;;;-0.10;100.00;102272.97;1867136;77;20400;-37
2021/01/04 01:42:34;;;;;;;;;;;;;;;-0.10;100.00;102271.69;1867156;77;20245;-38
2021/01/04 01:45:21;;;;;;;;;;;;;;;-0.09;100.00;102269.99;1800954;78;20137;-39
2021/01/04 01:48:13;;;;;;;;;;;;;;;-0.10;100.00;102266.93;1832600;78;20137;-39
2021/01/04 01:50:52;;;;;;;;;;;;;;;-0.12;100.00;102253.95;1832512;78;20188;-37
2021/01/04 01:53:40;;;;;;;;;;;;;;;-0.12;100.00;102256.53;1833771;78;20389;-39
2021/01/04 01:56:29;;;;;;;;;;;;;;;-0.13;100.00;102253.47;1835378;77;20270;-39
2021/01/04 01:59:13;;;;;;;;;;;;;;;-0.13;100.00;102252.18;1835496;78;20146;-38
2021/01/04 02:01:57;;;;;;;;;;;;;;;-0.14;100.00;102245.69;1837396;77;20236;-39
2021/01/04 02:04:29;;;;;;;;;;;;;;;-0.16;100.00;102243.42;1831858;78;20437;-38
2021/01/04 02:07:00;;;;;;;;;;;;;;;-0.17;100.00;102248.97;1832408;78;20161;-38
2021/01/04 02:09:32;;;;;;;;;;;;;;;-0.17;100.00;102249.38;1753973;78;20244;-37
2021/01/04 02:12:20;;;;;;;;;;;;;;;-0.17;100.00;102248.09;1832627;78;20274;-37
2021/01/04 02:15:11;;;;;;;;;;;;;;;-0.17;100.00;102254.53;1841671;78;20305;-38
2021/01/04 02:17:55;;;;;;;;;;;;;;;-0.17;100.00;102252.84;1841619;78;20133;-39
2021/01/04 02:20:32;;;;;;;;;;;;;;;-0.17;100.00;102246.40;1841522;78;20283;-37
2021/01/04 02:27:10;;;;;;;;;;;;;;;-0.13;100.00;102244.45;1908407;74;20380;-38
2021/01/04 02:29:37;;;;;;;;;;;;;;;-0.16;100.00;102249.86;1894292;75;20123;-38
2021/01/04 02:32:06;;;;;;;;;;;;;;;-0.17;100.00;102242.94;1903167;75;20367;-38
2021/01/04 02:34:35;;;;;;;;;;;;;;;-0.16;100.00;102249.86;1903090;75;20131;-38
2021/01/04 02:37:03;;;;;;;;;;;;;;;-0.15;100.00;102252.93;1903103;75;20219;-38
2021/01/04 02:40:00;;;;;;;;;;;;;;;-0.14;100.00;102249.55;1903148;75;20393;-38
2021/01/04 02:42:37;;;;;;;;;;;;;;;-0.14;100.00;102237.55;1903269;75;20382;-38
2021/01/04 02:45:09;;;;;;;;;;;;;;;-0.14;100.00;102237.55;1903179;75;20179;-38
2021/01/04 02:47:52;;;;;;;;;;;;;;;-0.13;100.00;102235.86;1903207;75;20132;-37
2021/01/04 02:50:51;;;;;;;;;;;;;;;-0.15;100.00;102233.59;1903074;75;20172;-40
2021/01/04 02:53:51;;;;;;;;;;;;;;;-0.16;100.00;102232.71;1903216;75;20160;-38
2021/01/04 02:56:33;;;;;;;;;;;;;;;-0.17;100.00;102235.20;1903161;75;20191;-40
2021/01/04 02:59:18;;;;;;;;;;;;;;;-0.17;100.00;102235.20;1902964;75;20202;-37
2021/01/04 03:01:53;;;;;;;;;;;;;;;-0.17;100.00;102236.48;1889199;75;20128;-39
2021/01/04 03:04:21;;;;;;;;;;;;;;;-0.17;100.00;102233.91;1903002;75;20251;-38
2021/01/04 03:06:53;;;;;;;;;;;;;;;-0.18;100.00;102235.60;1903062;75;20160;-38
2021/01/04 03:09:22;;;;;;;;;;;;;;;-0.17;100.00;102241.25;1903109;75;20175;-38
2021/01/04 03:11:49;;;;;;;;;;;;;;;-0.16;100.00;102235.69;1903044;75;20120;-38
2021/01/04 03:14:29;;;;;;;;;;;;;;;-0.16;100.00;102231.83;1903204;75;20434;-39
2021/01/04 03:17:01;;;;;;;;;;;;;;;-0.16;100.00;102224.98;1903038;75;20239;-38
2021/01/04 03:19:30;;;;;;;;;;;;;;;-0.16;100.00;102231.83;1900591;75;20132;-38
2021/01/04 03:22:06;;;;;;;;;;;;;;;-0.16;100.00;102236.98;1903155;75;20167;-39
2021/01/04 03:24:33;;;;;;;;;;;;;;;-0.17;100.00;102232.22;1903215;75;20446;-37
2021/01/04 03:27:11;;;;;;;;;;;;;;;-0.17;100.00;102244.22;1902905;75;20234;-37
2021/01/04 03:29:38;;;;;;;;;;;;;;;-0.18;100.00;102245.91;1903161;75;20179;-38
2021/01/04 03:32:06;;;;;;;;;;;;;;;-0.17;100.00;102240.36;1903127;75;20207;-39
2021/01/04 03:34:33;;;;;;;;;;;;;;;-0.18;100.00;102238.58;1903034;75;20203;-38
2021/01/04 03:37:01;;;;;;;;;;;;;;;-0.18;100.00;102238.18;1902548;75;20133;-38
2021/01/04 03:39:29;;;;;;;;;;;;;;;-0.18;100.00;102241.16;1902397;75;20429;-38
2021/01/04 03:41:57;;;;;;;;;;;;;;;-0.16;100.00;102243.42;1902350;75;20555;-37
2021/01/04 03:44:25;;;;;;;;;;;;;;;-0.16;100.00;102240.44;1902514;75;20151;-39
2021/01/04 03:46:54;;;;;;;;;;;;;;;-0.17;100.00;102242.94;1902296;75;20120;-38
2021/01/04 03:49:22;;;;;;;;;;;;;;;-0.19;100.00;102241.56;1902681;75;20163;-39
2021/01/04 03:51:55;;;;;;;;;;;;;;;-0.20;100.00;102241.10;1902403;75;20133;-37
2021/01/04 03:54:23;;;;;;;;;;;;;;;-0.19;100.00;102244.14;1902224;75;20195;-39
2021/01/04 03:56:53;;;;;;;;;;;;;;;-0.20;100.00;102245.37;1868008;75;20194;-38
2021/01/04 03:59:21;;;;;;;;;;;;;;;-0.19;100.00;102248.41;1867233;77;20380;-38
2021/01/04 04:01:54;;;;;;;;;;;;;;;-0.21;100.00;102253.91;1867261;77;20135;-38
2021/01/04 04:04:23;;;;;;;;;;;;;;;-0.24;100.00;102252.44;1867170;77;20145;-39
2021/01/04 04:06:52;;;;;;;;;;;;;;;-0.26;100.00;102245.06;1867256;77;20400;-38
2021/01/04 04:09:20;;;;;;;;;;;;;;;-0.27;100.00;102249.33;1867464;77;20162;-38
2021/01/04 04:11:48;;;;;;;;;;;;;;;-0.28;100.00;102246.26;1867223;77;20185;-38
2021/01/04 04:14:16;;;;;;;;;;;;;;;-0.28;100.00;102253.98;1867384;77;20225;-39
2021/01/04 04:16:44;;;;;;;;;;;;;;;-0.28;100.00;102252.70;1866992;75;20241;-39
2021/01/04 04:19:13;;;;;;;;;;;;;;;-0.30;100.00;102259.86;1867393;77;20182;-39
2021/01/04 04:21:41;;;;;;;;;;;;;;;-0.30;100.00;102257.28;1867199;77;20174;-38
2021/01/04 04:24:09;;;;;;;;;;;;;;;-0.31;100.00;102264.13;1867206;77;20225;-38
2021/01/04 04:26:39;;;;;;;;;;;;;;;-0.31;100.00;102260.66;1867013;77;20443;-38
2021/01/04 04:29:06;;;;;;;;;;;;;;;-0.33;100.00;102265.76;1866894;77;20150;-40
2021/01/04 04:31:35;;;;;;;;;;;;;;;-0.32;100.00;102270.08;1866716;77;20237;-38
2021/01/04 04:34:03;;;;;;;;;;;;;;;-0.33;100.00;102268.33;1866622;77;20128;-38
2021/01/04 04:36:31;;;;;;;;;;;;;;;-0.34;100.00;102269.12;1867094;77;20237;-39
2021/01/04 04:38:58;;;;;;;;;;;;;;;-0.35;100.00;102271.22;1867134;77;20226;-39
2021/01/04 04:41:33;;;;;;;;;;;;;;;-0.36;100.00;102272.42;1867126;77;20162;-39
2021/01/04 04:44:14;;;;;;;;;;;;;;;-0.38;100.00;102271.05;1866927;77;20300;-39
2021/01/04 04:46:54;;;;;;;;;;;;;;;-0.39;100.00;102270.98;1866519;75;20491;-38
2021/01/04 04:49:28;;;;;;;;;;;;;;;-0.42;100.00;102264.86;1866957;77;20280;-39
2021/01/04 04:52:21;;;;;;;;;;;;;;;-0.42;100.00;102271.30;1867332;75;20178;-38
2021/01/04 04:55:04;;;;;;;;;;;;;;;-0.43;100.00;102260.51;1783546;77;20247;-38
2021/01/04 04:57:50;;;;;;;;;;;;;;;-0.44;100.00;102263.88;1867254;77;20165;-38
2021/01/04 05:00:27;;;;;;;;;;;;;;;-0.44;100.00;102275.48;1866953;77;20233;-38
2021/01/04 05:03:07;;;;;;;;;;;;;;;-0.44;100.00;102269.44;1868038;75;20181;-38
2021/01/04 05:05:44;;;;;;;;;;;;;;;-0.44;100.00;102274.19;1867278;75;20184;-39
2021/01/04 05:08:18;;;;;;;;;;;;;;;-0.42;100.00;102265.27;1879361;75;20489;-38
2021/01/04 05:10:48;;;;;;;;;;;;;;;-0.40;100.00;102275.25;1857713;77;20178;-39
2021/01/04 05:13:20;;;;;;;;;;;;;;;-0.39;100.00;102278.28;1867068;77;20165;-39
2021/01/04 05:16:08;;;;;;;;;;;;;;;-0.38;100.00;102279.17;1877412;75;20120;-38
2021/01/04 05:19:04;;;;;;;;;;;;;;;-0.38;100.00;102288.19;1871219;75;20266;-39
2021/01/04 05:21:54;;;;;;;;;;;;;;;-0.39;100.00;102285.16;1866787;76;20137;-38
2021/01/04 05:24:34;;;;;;;;;;;;;;;-0.38;100.00;102281.35;1832132;76;20275;-40
2021/01/04 05:27:12;;;;;;;;;;;;;;;-0.37;100.00;102288.68;1867918;75;20194;-39
2021/01/04 05:30:01;;;;;;;;;;;;;;;-0.36;100.00;102288.77;1866120;75;20126;-39
2021/01/04 05:32:54;;;;;;;;;;;;;;;-0.36;100.00;102282.72;1832469;77;20239;-39
2021/01/04 05:35:46;;;;;;;;;;;;;;;-0.32;100.00;102286.83;1906229;74;20156;-38
2021/01/04 05:38:33;;;;;;;;;;;;;;;-0.37;100.00;102289.56;1845030;75;20185;-40
2021/01/04 05:41:11;;;;;;;;;;;;;;;-0.39;100.00;102287.30;1868535;75;20298;-40
2021/01/04 05:43:57;;;;;;;;;;;;;;;-0.37;100.00;102295.13;1869252;75;20213;-39
2021/01/04 05:46:34;;;;;;;;;;;;;;;-0.37;100.00;102298.59;1870109;75;20452;-39
2021/01/04 05:49:08;;;;;;;;;;;;;;;-0.38;100.00;102283.04;1874150;75;20183;-40
2021/01/04 05:51:43;;;;;;;;;;;;;;;-0.39;100.00;102282.15;1881635;75;20136;-40
2021/01/04 05:54:12;;;;;;;;;;;;;;;-0.38;100.00;102281.75;1869104;75;20359;-41
2021/01/04 05:56:42;;;;;;;;;;;;;;;-0.37;100.00;102286.10;1846843;75;20188;-39
2021/01/04 05:59:13;;;;;;;;;;;;;;;-0.36;100.00;102287.87;1826326;75;20207;-40
2021/01/04 06:01:42;;;;;;;;;;;;;;;-0.34;100.00;102294.01;1876497;75;20177;-39
2021/01/04 06:04:14;;;;;;;;;;;;;;;-0.33;100.00;102291.92;1868471;75;20185;-39
2021/01/04 06:06:58;;;;;;;;;;;;;;;-0.32;100.00;102297.13;1866964;75;20171;-40
2021/01/04 06:09:27;;;;;;;;;;;;;;;-0.29;100.00;102299.88;1868644;75;20239;-40
2021/01/04 06:12:06;;;;;;;;;;;;;;;-0.26;100.00;102300.46;1874698;75;20151;-39
2021/01/04 06:14:36;;;;;;;;;;;;;;;-0.26;100.00;102296.59;1876822;75;20134;-39
2021/01/04 06:17:08;;;;;;;;;;;;;;;-0.25;100.00;102299.23;1867986;75;20825;-40
2021/01/04 06:19:37;;;;;;;;;;;;;;;-0.24;100.00;102294.56;1867333;75;20177;-38
2021/01/04 06:22:12;;;;;;;;;;;;;;;-0.22;100.00;102294.65;1868546;75;20184;-40
2021/01/04 06:26:50;;;;;;;;;;;;;;;-0.13;100.00;102280.53;1889912;74;20188;-41
2021/01/04 06:29:33;;;;;;;;;;;;;;;-0.15;100.00;102284.75;1853654;76;20177;-39
2021/01/04 06:32:01;;;;;;;;;;;;;;;-0.13;100.00;102279.24;1842132;75;20160;-40
2021/01/04 06:34:31;;;;;;;;;;;;;;;-0.10;100.00;102279.81;1871386;75;20219;-41
2021/01/04 06:37:01;;;;;;;;;;;;;;;-0.06;100.00;102279.16;1833783;77;20189;-39
2021/01/04 06:39:32;;;;;;;;;;;;;;;-0.02;100.00;102282.39;1837498;77;20291;-40
2021/01/04 06:42:09;;;;;;;;;;;;;;;0.00;100.00;102281.64;1835573;77;20149;-42
2021/01/04 06:44:37;;;;;;;;;;;;;;;0.05;100.00;102284.88;1839435;77;20197;-39
2021/01/04 06:47:16;;;;;;;;;;;;;;;0.05;100.00;102271.59;1828902;77;20137;-42
2021/01/04 06:49:48;;;;;;;;;;;;;;;0.07;100.00;102279.38;1797750;78;20135;-42
2021/01/04 06:52:36;;;;;;;;;;;;;;;0.09;100.00;102279.95;1814617;78;20466;-40
2021/01/04 06:55:26;;;;;;;;;;;;;;;0.11;100.00;102280.03;1838266;77;20232;-40
2021/01/04 06:58:17;;;;;;;;;;;;;;;0.11;100.00;102278.34;1838157;77;20221;-40
2021/01/04 07:00:55;;;;;;;;;;;;;;;0.12;100.00;102276.66;1830857;77;20442;-42
2021/01/04 07:03:31;;;;;;;;;;;;;;;0.13;100.00;102273.27;1837572;77;20384;-39
2021/01/04 07:06:09;;;;;;;;;;;;;;;0.12;100.00;102273.67;1829904;78;20184;-40
2021/01/04 07:09:16;;;;;;;;;;;;;;;0.13;100.00;102267.69;1834253;77;20138;-43
2021/01/04 07:11:48;;;;;;;;;;;;;;;0.17;100.00;102267.45;1820578;78;20264;-42
2021/01/04 07:14:25;;;;;;;;;;;;;;;0.20;100.00;102276.21;1819744;78;20449;-42
2021/01/04 07:16:57;;;;;;;;;;;;;;;0.22;100.00;102265.58;1830958;77;20290;-44
2021/01/04 07:19:28;;;;;;;;;;;;;;;0.24;100.00;102272.11;1833946;77;20197;-41
2021/01/04 07:21:57;;;;;;;;;;;;;;;0.26;100.00;102273.08;1834018;77;20209;-41
2021/01/04 07:24:57;;;;;;;;;;;;;;;0.29;100.00;102262.91;1817974;77;20492;-41
2021/01/04 07:27:44;;;;;;;;;;;;;;;0.30;100.00;102262.09;1796851;77;20126;-42
2021/01/04 07:30:39;;;;;;;;;;;;;;;0.35;100.00;102267.96;1810106;77;20183;-41
2021/01/04 07:33:25;;;;;;;;;;;;;;;0.40;100.00;102269.47;1832752;77;20192;-40
2021/01/04 07:36:13;;;;;;;;;;;;;;;0.42;100.00;102270.84;1814220;77;20180;-43
2021/01/04 07:38:48;;;;;;;;;;;;;;;0.47;100.00;102281.86;1810208;78;20169;-40
2021/01/04 07:41:27;;;;;;;;;;;;;;;0.51;100.00;102267.03;1831080;77;20280;-42
2021/01/04 07:44:17;;;;;;;;;;;;;;;0.57;100.00;102259.59;1839675;77;20154;-41
2021/01/04 07:47:12;;;;;;;;;;;;;;;0.63;100.00;102256.02;1823303;77;20454;-41
2021/01/04 07:50:07;;;;;;;;;;;;;;;0.71;100.00;102253.81;1802473;77;20192;-40
2021/01/04 07:53:09;;;;;;;;;;;;;;;0.75;100.00;102266.92;1817032;77;20258;-43
2021/01/04 07:56:07;;;;;;;;;;;;;;;0.84;100.00;102268.19;1816247;78;20295;-42
2021/01/04 07:58:48;;;;;;;;;;;;;;;0.94;100.00;102272.55;1834311;77;20180;-42
2021/01/04 08:01:31;;;;;;;;;;;;;;;0.99;100.00;102251.70;1829507;77;20237;-40
2021/01/04 08:04:32;;;;;;;;;;;;;;;0.96;100.00;102256.73;1812133;78;20232;-42
2021/01/04 08:07:17;;;;;;;;;;;;;;;0.97;100.00;102249.47;1804467;78;20213;-42
2021/01/04 08:10:05;;;;;;;;;;;;;;;1.01;100.00;102253.07;1804233;78;20168;-42
2021/01/04 08:12:51;;;;;;;;;;;;;;;1.05;100.00;102253.71;1804844;78;20300;-42
2021/01/04 08:15:34;;;;;;;;;;;;;;;1.08;100.00;102252.14;1808630;78;20229;-40
2021/01/04 08:18:10;;;;;;;;;;;;;;;0.99;100.00;102248.23;1797506;78;20218;-42
2021/01/04 08:20:44;;;;;;;;;;;;;;;0.92;100.00;102236.73;1804004;78;20412;-40
2021/01/04 08:23:34;;;;;;;;;;;;;;;0.94;100.00;102238.98;1805377;78;20179;-42
2021/01/04 08:26:32;;;;;;;;;;;;;;;0.96;100.00;102236.08;1814032;78;20238;-42
2021/01/04 08:29:26;;;;;;;;;;;;;;;0.96;100.00;102237.37;1802558;78;20188;-42
2021/01/04 08:32:07;;;;;;;;;;;;;;;0.91;100.00;102233.70;1804532;78;20170;-40
2021/01/04 08:34:40;;;;;;;;;;;;;;;0.85;100.00;102226.95;1803711;78;20222;-49
2021/01/04 08:37:08;;;;;;;;;;;;;;;0.85;100.00;102223.48;1803585;78;20471;-41
2021/01/04 08:39:43;;;;;;;;;;;;;;;0.84;100.00;102223.89;1812925;78;20190;-42
2021/01/04 08:42:27;;;;;;;;;;;;;;;0.87;100.00;102220.15;1812710;78;20179;-43
2021/01/04 08:45:04;;;;;;;;;;;;;;;0.88;100.00;102210.30;1809129;78;20259;-42
2021/01/04 08:47:39;;;;;;;;;;;;;;;0.85;100.00;102215.34;1808431;78;20182;-42
2021/01/04 08:50:35;;;;;;;;;;;;;;;0.87;100.00;102215.39;1786371;78;20674;-53
2021/01/04 08:53:18;;;;;;;;;;;;;;;0.91;100.00;102212.16;1767545;78;20198;-42
2021/01/04 08:55:48;;;;;;;;;;;;;;;0.96;100.00;102210.66;1805935;78;20440;-42
2021/01/04 08:58:25;;;;;;;;;;;;;;;1.03;100.00;102211.42;1808258;78;20223;-42
2021/01/04 09:01:08;;;;;;;;;;;;;;;1.06;100.00;102187.91;1809670;78;20173;-41
2021/01/04 09:03:36;;;;;;;;;;;;;;;1.03;100.00;102199.81;1805896;78;20183;-42
2021/01/04 09:06:26;;;;;;;;;;;;;;;0.99;100.00;102210.78;1803982;78;20135;-42
2021/01/04 09:09:07;;;;;;;;;;;;;;;0.98;100.00;102207.35;1808006;78;20192;-43
2021/01/04 09:11:39;;;;;;;;;;;;;;;1.02;99.93;102202.80;1814069;78;20273;-45
2021/01/04 09:14:20;;;;;;;;;;;;;;;1.06;99.88;102197.34;1812589;78;20540;-44
2021/01/04 09:16:49;;;;;;;;;;;;;;;1.14;99.95;102188.26;1807311;78;20198;-42
2021/01/04 09:19:26;;;;;;;;;;;;;;;1.21;99.88;102194.17;1808886;78;20223;-41
2021/01/04 09:22:05;;;;;;;;;;;;;;;1.22;99.69;102195.06;1807542;78;20194;-43
2021/01/04 09:24:35;;;;;;;;;;;;;;;1.21;99.57;102187.72;1806714;78;20246;-42
2021/01/04 09:27:14;;;;;;;;;;;;;;;1.19;99.56;102181.59;1803960;78;20384;-42
2021/01/04 09:29:46;;;;;;;;;;;;;;;1.23;99.62;102174.88;1809459;78;20182;-40
2021/01/04 09:32:16;;;;;;;;;;;;;;;1.25;99.62;102171.53;1808385;78;20203;-42
2021/01/04 09:34:46;;;;;;;;;;;;;;;1.22;99.49;102169.23;1809706;78;20199;-42
2021/01/04 09:37:23;;;;;;;;;;;;;;;1.14;99.33;102164.61;1808942;78;20214;-42
2021/01/04 09:39:56;;;;;;;;;;;;;;;1.08;99.35;102164.73;1790594;78;20210;-43
2021/01/04 09:42:26;;;;;;;;;;;;;;;1.04;99.49;102166.72;1805078;78;20198;-43
2021/01/04 09:44:54;;;;;;;;;;;;;;;1.03;99.58;102164.55;1800853;78;20187;-42
2021/01/04 09:47:26;;;;;;;;;;;;;;;1.06;99.66;102159.50;1772326;78;20437;-43
2021/01/04 09:50:02;;;;;;;;;;;;;;;1.09;99.67;102149.32;1791614;78;20135;-43
2021/01/04 09:52:41;;;;;;;;;;;;;;;1.12;99.63;102131.36;1809156;78;20453;-41
2021/01/04 09:55:14;;;;;;;;;;;;;;;1.09;99.50;102141.58;1794417;78;20208;-42
2021/01/04 09:57:44;;;;;;;;;;;;;;;1.07;99.57;102143.19;1808011;78;20202;-42
2021/01/04 10:00:22;;;;;;;;;;;;;;;1.06;99.60;102131.09;1805594;78;20206;-40
2021/01/04 10:03:19;;;;;;;;;;;;;;;1.05;99.67;102125.45;1805282;78;20609;-42
2021/01/04 10:05:49;;;;;;;;;;;;;;;1.06;99.75;102123.34;1807834;78;20198;-42
2021/01/04 10:08:24;;;;;;;;;;;;;;;1.10;99.67;102126.56;1804856;78;20991;-42
2021/01/04 10:10:58;;;;;;;;;;;;;;;1.12;99.59;102126.20;1805107;78;20208;-42
2021/01/04 10:13:31;;;;;;;;;;;;;;;1.16;99.37;102130.70;1804779;78;20350;-42
2021/01/04 10:16:01;;;;;;;;;;;;;;;1.21;99.24;102128.31;1803966;78;20216;-41
2021/01/04 10:18:53;;;;;;;;;;;;;;;1.25;99.11;102127.62;1805323;78;20174;-41
2021/01/04 10:21:30;;;;;;;;;;;;;;;1.31;98.99;102123.16;1807817;78;20210;-44
2021/01/04 10:26:50;;;;;;;;;;;;;;;1.39;98.74;102114.01;1878126;74;20319;-41
2021/01/04 10:29:20;;;;;;;;;;;;;;;1.35;98.65;102104.37;1815901;75;20377;-41
2021/01/04 10:31:51;;;;;;;;;;;;;;;1.33;98.48;102108.58;1867959;75;20243;-43
2021/01/04 10:34:19;;;;;;;;;;;;;;;1.29;98.40;102102.41;1868707;75;20169;-43
2021/01/04 10:36:54;;;;;;;;;;;;;;;1.28;98.38;102095.47;1869966;75;20625;-41
2021/01/04 10:39:25;;;;;;;;;;;;;;;1.26;98.35;102089.75;1872166;75;20233;-43
2021/01/04 10:41:54;;;;;;;;;;;;;;;1.27;98.35;102085.95;1870878;75;20231;-40
2021/01/04 10:44:25;;;;;;;;;;;;;;;1.28;98.30;102080.38;1869640;75;20216;-41
2021/01/04 10:47:02;;;;;;;;;;;;;;;1.32;98.30;102080.97;1869561;75;20455;-44
2021/01/04 10:49:31;;;;;;;;;;;;;;;1.38;98.30;102079.53;1872419;75;20269;-43
2021/01/04 10:51:59;;;;;;;;;;;;;;;1.41;98.21;102080.09;1868221;75;20191;-43
2021/01/04 10:54:41;;;;;;;;;;;;;;;1.43;98.17;102074.59;1869133;75;20191;-44
2021/01/04 10:57:28;;;;;;;;;;;;;;;1.45;98.06;102072.52;1875738;75;20156;-41
2021/01/04 11:00:17;;;;;;;;;;;;;;;1.47;98.02;102071.30;1869131;75;20229;-42
2021/01/04 11:02:47;;;;;;;;;;;;;;;1.48;97.88;102067.91;1871432;75;20221;-43
2021/01/04 11:05:18;;;;;;;;;;;;;;;1.41;97.65;102059.01;1874033;75;20473;-43
2021/01/04 11:07:47;;;;;;;;;;;;;;;1.37;97.54;102063.59;1832802;75;20593;-41
2021/01/04 11:10:27;;;;;;;;;;;;;;;1.37;97.60;102055.84;1870632;75;20192;-41
2021/01/04 11:12:59;;;;;;;;;;;;;;;1.38;97.71;102056.28;1870741;75;20271;-43
2021/01/04 11:15:29;;;;;;;;;;;;;;;1.42;97.76;102055.61;1857193;75;20200;-42
2021/01/04 11:18:09;;;;;;;;;;;;;;;1.42;97.77;102047.86;1848949;75;20171;-43
2021/01/04 11:20:38;;;;;;;;;;;;;;;1.45;97.81;102050.96;1872107;75;20278;-44
2021/01/04 11:23:15;;;;;;;;;;;;;;;1.49;97.78;102064.50;1871722;75;20164;-43
2021/01/04 11:25:45;;;;;;;;;;;;;;;1.53;97.78;102063.39;1856893;75;20193;-43
2021/01/04 11:28:16;;;;;;;;;;;;;;;1.57;97.70;102052.39;1871040;75;20502;-42
2021/01/04 11:30:47;;;;;;;;;;;;;;;1.56;97.60;102063.53;1868199;75;20506;-42
2021/01/04 11:33:17;;;;;;;;;;;;;;;1.58;97.56;102061.88;1877884;75;20186;-43
2021/01/04 11:35:46;;;;;;;;;;;;;;;1.53;97.41;102054.76;1868832;75;20190;-43
2021/01/04 11:38:18;;;;;;;;;;;;;;;1.47;97.41;102046.34;1868488;75;20181;-44
2021/01/04 11:40:49;;;;;;;;;;;;;;;1.45;97.48;102062.59;1871463;75;20992;-41
2021/01/04 11:43:19;;;;;;;;;;;;;;;1.41;97.57;102060.30;1866625;75;20169;-42
2021/01/04 11:45:50;;;;;;;;;;;;;;;1.41;97.70;102061.59;1871380;75;20205;-42
2021/01/04 11:48:22;;;;;;;;;;;;;;;1.41;97.70;102058.13;1875359;75;20193;-42
2021/01/04 11:50:56;;;;;;;;;;;;;;;1.40;97.83;102057.23;1845057;75;20178;-42
2021/01/04 11:53:39;;;;;;;;;;;;;;;1.40;97.93;102055.95;1838486;75;20164;-45
2021/01/04 11:56:12;;;;;;;;;;;;;;;1.42;98.02;102058.20;1808339;75;20695;-43
2021/01/04 11:58:46;;;;;;;;;;;;;;;1.41;98.04;102053.84;1830614;75;20367;-42
2021/01/04 12:01:15;;;;;;;;;;;;;;;1.40;98.09;102057.65;1860600;75;20254;-44
2021/01/04 12:03:44;;;;;;;;;;;;;;;1.36;98.15;102055.36;1831951;75;20197;-43
2021/01/04 12:06:13;;;;;;;;;;;;;;;1.35;98.29;102052.30;1852663;75;20535;-45
2021/01/04 12:08:41;;;;;;;;;;;;;;;1.34;98.36;102044.47;1873362;75;20205;-45
2021/01/04 12:11:09;;;;;;;;;;;;;;;1.30;98.35;102047.76;1866823;75;20332;-43
2021/01/04 12:13:38;;;;;;;;;;;;;;;1.23;98.41;102053.07;1870992;75;20298;-43
2021/01/04 12:16:05;;;;;;;;;;;;;;;1.18;98.62;102046.39;1872039;75;20178;-43
2021/01/04 12:18:33;;;;;;;;;;;;;;;1.18;98.81;102053.30;1876215;75;20182;-41
2021/01/04 12:21:01;;;;;;;;;;;;;;;1.16;98.97;102045.47;1867269;75;20226;-43
2021/01/04 12:23:29;;;;;;;;;;;;;;;1.15;99.10;102044.11;1868150;75;20193;-41
2021/01/04 12:25:57;;;;;;;;;;;;;;;1.15;99.28;102048.86;1871734;75;20451;-43
2021/01/04 12:28:26;;;;;;;;;;;;;;;1.14;99.43;102041.93;1835652;75;20168;-44
2021/01/04 12:31:01;;;;;;;;;;;;;;;1.13;99.51;102050.89;1869650;75;20195;-43
2021/01/04 12:33:32;;;;;;;;;;;;;;;1.10;99.63;102049.08;1848108;75;20162;-44
2021/01/04 12:36:04;;;;;;;;;;;;;;;1.07;99.73;102057.09;1867328;75;20229;-54
2021/01/04 12:38:32;;;;;;;;;;;;;;;1.05;99.85;102060.88;1867694;75;20375;-44
2021/01/04 12:41:00;;;;;;;;;;;;;;;1.02;99.96;102062.47;1870005;75;20223;-43
2021/01/04 12:43:29;;;;;;;;;;;;;;;1.00;100.00;102060.22;1867357;75;20206;-43
2021/01/04 12:45:58;;;;;;;;;;;;;;;0.97;100.00;102060.98;1852388;75;20244;-44
2021/01/04 12:48:26;;;;;;;;;;;;;;;0.95;100.00;102046.23;1866769;75;20343;-44
2021/01/04 12:50:55;;;;;;;;;;;;;;;0.95;100.00;102050.11;1868104;75;20170;-43
2021/01/04 12:53:23;;;;;;;;;;;;;;;0.94;100.00;102040.59;1866794;75;20175;-43
2021/01/04 12:55:52;;;;;;;;;;;;;;;0.92;100.00;102048.70;1870601;75;20529;-46
2021/01/04 12:58:23;;;;;;;;;;;;;;;0.91;100.00;102044.34;1870235;75;20210;-42
2021/01/04 13:00:53;;;;;;;;;;;;;;;0.90;100.00;102046.04;1873209;75;20188;-44
2021/01/04 13:03:20;;;;;;;;;;;;;;;0.90;100.00;102054.19;1869257;75;20450;-41
2021/01/04 13:05:49;;;;;;;;;;;;;;;0.89;100.00;102056.29;1867786;75;20215;-42
2021/01/04 13:08:19;;;;;;;;;;;;;;;0.88;100.00;102057.98;1863466;75;20212;-43
2021/01/04 13:10:47;;;;;;;;;;;;;;;0.88;100.00;102054.11;1871554;75;20501;-42
2021/01/04 13:13:15;;;;;;;;;;;;;;;0.88;100.00;102054.52;1868383;75;20192;-44
2021/01/04 13:15:45;;;;;;;;;;;;;;;0.88;100.00;102056.70;1869688;75;20190;-42
2021/01/04 13:18:14;;;;;;;;;;;;;;;0.90;100.00;102060.64;1868244;75;20196;-42
2021/01/04 13:20:42;;;;;;;;;;;;;;;0.89;100.00;102064.92;1871435;75;20129;-43
2021/01/04 13:23:09;;;;;;;;;;;;;;;0.90;100.00;102064.11;1868446;75;20179;-43
2021/01/04 13:25:37;;;;;;;;;;;;;;;0.90;100.00;102061.94;1871123;75;20230;-43
2021/01/04 13:28:07;;;;;;;;;;;;;;;0.89;100.00;102064.03;1869086;75;20204;-43
2021/01/04 13:30:35;;;;;;;;;;;;;;;0.90;100.00;102060.23;1868651;75;20203;-43